sensor_id;sensor_type;location;lat;lon;timestamp;temperature;humidity
16060;DHT22;8134;49.552;7.632;2023-04-03T05:12:11;2.70;99.90
16060;DHT22;8134;49.552;7.632;2023-04-03T05:14:36;2.70;99.90
16060;DHT22;8134;49.552;7.632;2023-04-03T05:17:02;2.70;99.90
16060;DHT22;8134;49.552;7.632;2023-04-03T05:19:27;2.70;99.90
16060;DHT22;8134;49.552;7.632;2023-04-03T05:21:52;2.60;99.90
16060;DHT22;8134;49.552;7.632;2023-04-03T05:24:18;2.60;99.90
16060;DHT22;8134;49.552;7.632;2023-04-03T05:26:44;2.60;99.90
16060;DHT22;8134;49.552;7.632;2023-04-03T05:29:09;2.60;99.90
16060;DHT22;8134;49.552;7.632;2023-04-03T05:31:35;2.80;99.90
16060;DHT22;8134;49.552;7.632;2023-04-03T05:34:00;2.60;99.90
16060;DHT22;8134;49.552;7.632;2023-04-03T05:36:26;2.60;99.90
16060;DHT22;8134;49.552;7.632;2023-04-03T05:38:52;2.60;99.90
16060;DHT22;8134;49.552;7.632;2023-04-03T05:41:18;2.60;99.90
16060;DHT22;8134;49.552;7.632;2023-04-03T05:43:43;2.60;99.90
16060;DHT22;8134;49.552;7.632;2023-04-03T05:46:16;2.70;99.90
16060;DHT22;8134;49.552;7.632;2023-04-03T05:48:42;2.70;99.90
16060;DHT22;8134;49.552;7.632;2023-04-03T05:51:09;2.60;99.90
16060;DHT22;8134;49.552;7.632;2023-04-03T05:53:38;2.60;99.90
16060;DHT22;8134;49.552;7.632;2023-04-03T05:56:04;2.60;99.90
16060;DHT22;8134;49.552;7.632;2023-04-03T05:58:29;2.60;99.90
16060;DHT22;8134;49.552;7.632;2023-04-03T06:00:55;2.60;99.90
16060;DHT22;8134;49.552;7.632;2023-04-03T06:03:21;2.60;99.90
16060;DHT22;8134;49.552;7.632;2023-04-03T06:05:47;2.60;99.90
16060;DHT22;8134;49.552;7.632;2023-04-03T06:08:13;2.60;99.90
16060;DHT22;8134;49.552;7.632;2023-04-03T06:10:39;2.60;99.90
16060;DHT22;8134;49.552;7.632;2023-04-03T06:13:05;2.70;99.90
16060;DHT22;8134;49.552;7.632;2023-04-03T06:15:31;2.70;99.90
16060;DHT22;8134;49.552;7.632;2023-04-03T06:17:56;2.70;99.90
16060;DHT22;8134;49.552;7.632;2023-04-03T06:20:22;2.70;99.90
16060;DHT22;8134;49.552;7.632;2023-04-03T06:22:48;2.70;99.90
16060;DHT22;8134;49.552;7.632;2023-04-03T06:25:13;2.70;99.90
16060;DHT22;8134;49.552;7.632;2023-04-03T06:27:39;2.70;99.90
16060;DHT22;8134;49.552;7.632;2023-04-03T06:30:05;2.70;99.90
16060;DHT22;8134;49.552;7.632;2023-04-03T06:32:31;2.80;99.90
16060;DHT22;8134;49.552;7.632;2023-04-03T06:34:57;2.80;99.90
16060;DHT22;8134;49.552;7.632;2023-04-03T06:37:23;3.00;99.90
16060;DHT22;8134;49.552;7.632;2023-04-03T06:39:51;3.00;99.90
16060;DHT22;8134;49.552;7.632;2023-04-03T06:42:16;3.00;99.90
16060;DHT22;8134;49.552;7.632;2023-04-03T06:44:42;3.00;99.90
16060;DHT22;8134;49.552;7.632;2023-04-03T06:47:09;3.00;99.90
16060;DHT22;8134;49.552;7.632;2023-04-03T06:49:36;3.00;99.90
16060;DHT22;8134;49.552;7.632;2023-04-03T06:52:02;3.10;99.90
16060;DHT22;8134;49.552;7.632;2023-04-03T06:54:27;3.10;99.90
16060;DHT22;8134;49.552;7.632;2023-04-03T06:56:53;3.10;99.90
16060;DHT22;8134;49.552;7.632;2023-04-03T06:59:18;3.20;99.90
16060;DHT22;8134;49.552;7.632;2023-04-03T07:01:44;3.20;99.90
16060;DHT22;8134;49.552;7.632;2023-04-03T07:04:10;3.20;99.90
16060;DHT22;8134;49.552;7.632;2023-04-03T07:06:36;3.30;99.90
16060;DHT22;8134;49.552;7.632;2023-04-03T07:09:02;3.40;99.90
16060;DHT22;8134;49.552;7.632;2023-04-03T07:11:28;3.40;99.90
16060;DHT22;8134;49.552;7.632;2023-04-03T07:13:53;3.50;99.90
16060;DHT22;8134;49.552;7.632;2023-04-03T07:16:19;3.50;99.90
16060;DHT22;8134;49.552;7.632;2023-04-03T07:18:45;3.60;99.90
16060;DHT22;8134;49.552;7.632;2023-04-03T07:21:11;3.70;99.90
16060;DHT22;8134;49.552;7.632;2023-04-03T07:23:37;3.70;99.90
16060;DHT22;8134;49.552;7.632;2023-04-03T07:26:05;3.80;99.90
16060;DHT22;8134;49.552;7.632;2023-04-03T07:28:31;3.90;99.90
16060;DHT22;8134;49.552;7.632;2023-04-03T07:31:02;4.10;99.90
16060;DHT22;8134;49.552;7.632;2023-04-03T07:33:27;4.20;99.90
16060;DHT22;8134;49.552;7.632;2023-04-03T07:35:53;4.40;99.90
16060;DHT22;8134;49.552;7.632;2023-04-03T07:38:19;4.60;99.90
16060;DHT22;8134;49.552;7.632;2023-04-03T07:40:46;4.70;99.90
16060;DHT22;8134;49.552;7.632;2023-04-03T07:43:11;4.90;99.90
16060;DHT22;8134;49.552;7.632;2023-04-03T07:45:37;5.10;99.90
16060;DHT22;8134;49.552;7.632;2023-04-03T07:48:03;5.10;99.90
16060;DHT22;8134;49.552;7.632;2023-04-03T07:50:29;5.20;99.90
16060;DHT22;8134;49.552;7.632;2023-04-03T07:52:56;5.30;99.90
16060;DHT22;8134;49.552;7.632;2023-04-03T07:55:23;5.40;99.90
16060;DHT22;8134;49.552;7.632;2023-04-03T07:57:48;5.50;99.90
16060;DHT22;8134;49.552;7.632;2023-04-03T08:00:14;5.50;99.90
16060;DHT22;8134;49.552;7.632;2023-04-03T08:02:39;5.60;99.90
16060;DHT22;8134;49.552;7.632;2023-04-03T08:05:05;5.70;99.90
16060;DHT22;8134;49.552;7.632;2023-04-03T08:07:31;5.80;99.90
16060;DHT22;8134;49.552;7.632;2023-04-03T08:09:56;5.90;99.90
16060;DHT22;8134;49.552;7.632;2023-04-03T08:12:22;6.00;99.90
16060;DHT22;8134;49.552;7.632;2023-04-03T08:14:48;6.10;99.90
16060;DHT22;8134;49.552;7.632;2023-04-03T08:17:13;6.10;99.90
16060;DHT22;8134;49.552;7.632;2023-04-03T08:19:39;6.20;99.90
16060;DHT22;8134;49.552;7.632;2023-04-03T08:22:05;6.10;99.90
16060;DHT22;8134;49.552;7.632;2023-04-03T08:24:32;6.20;99.90
16060;DHT22;8134;49.552;7.632;2023-04-03T08:26:57;6.30;99.90
16060;DHT22;8134;49.552;7.632;2023-04-03T08:29:23;6.30;99.90
16060;DHT22;8134;49.552;7.632;2023-04-03T08:31:50;6.30;99.90
16060;DHT22;8134;49.552;7.632;2023-04-03T08:34:15;6.40;99.90
16060;DHT22;8134;49.552;7.632;2023-04-03T08:36:41;6.40;99.90
16060;DHT22;8134;49.552;7.632;2023-04-03T08:39:07;6.50;99.90
16060;DHT22;8134;49.552;7.632;2023-04-03T08:49:09;6.90;99.90
16060;DHT22;8134;49.552;7.632;2023-04-03T08:51:36;6.80;99.90
16060;DHT22;8134;49.552;7.632;2023-04-03T08:54:06;6.80;99.90
16060;DHT22;8134;49.552;7.632;2023-04-03T08:56:37;6.80;99.90
16060;DHT22;8134;49.552;7.632;2023-04-03T08:59:05;6.80;99.90
16060;DHT22;8134;49.552;7.632;2023-04-03T09:01:34;6.90;99.90
16060;DHT22;8134;49.552;7.632;2023-04-03T09:04:00;7.00;99.90
16060;DHT22;8134;49.552;7.632;2023-04-03T09:06:27;7.10;99.90
16060;DHT22;8134;49.552;7.632;2023-04-03T09:21:42;7.10;99.90
16060;DHT22;8134;49.552;7.632;2023-04-03T09:24:09;7.20;99.90
16060;DHT22;8134;49.552;7.632;2023-04-03T09:26:46;7.10;99.90
16060;DHT22;8134;49.552;7.632;2023-04-03T09:29:17;7.10;99.90
16060;DHT22;8134;49.552;7.632;2023-04-03T09:31:44;7.00;99.90
16060;DHT22;8134;49.552;7.632;2023-04-03T09:39:18;7.10;99.90
16060;DHT22;8134;49.552;7.632;2023-04-03T09:44:41;7.30;99.90
16060;DHT22;8134;49.552;7.632;2023-04-03T09:47:17;7.40;99.90
16060;DHT22;8134;49.552;7.632;2023-04-03T09:49:43;7.50;99.90
16060;DHT22;8134;49.552;7.632;2023-04-03T09:52:25;7.60;99.90
16060;DHT22;8134;49.552;7.632;2023-04-03T09:54:50;7.70;99.90
16060;DHT22;8134;49.552;7.632;2023-04-03T09:57:16;7.60;99.90
16060;DHT22;8134;49.552;7.632;2023-04-03T09:59:47;7.60;99.90
16060;DHT22;8134;49.552;7.632;2023-04-03T10:02:24;7.60;99.90
16060;DHT22;8134;49.552;7.632;2023-04-03T10:04:51;7.60;99.90
16060;DHT22;8134;49.552;7.632;2023-04-03T10:09:56;7.70;99.90
16060;DHT22;8134;49.552;7.632;2023-04-03T10:12:22;7.70;99.90
16060;DHT22;8134;49.552;7.632;2023-04-03T10:15:00;7.70;99.90
16060;DHT22;8134;49.552;7.632;2023-04-03T10:22:50;7.70;99.90
16060;DHT22;8134;49.552;7.632;2023-04-03T10:25:20;7.80;99.90
16060;DHT22;8134;49.552;7.632;2023-04-03T10:27:55;7.90;99.90
16060;DHT22;8134;49.552;7.632;2023-04-03T10:30:30;8.10;99.90
16060;DHT22;8134;49.552;7.632;2023-04-03T10:32:59;8.10;99.90
16060;DHT22;8134;49.552;7.632;2023-04-03T10:35:44;8.00;99.90
16060;DHT22;8134;49.552;7.632;2023-04-03T10:40:44;8.00;99.90
16060;DHT22;8134;49.552;7.632;2023-04-03T10:43:17;8.10;99.90
16060;DHT22;8134;49.552;7.632;2023-04-03T10:45:49;8.30;99.90
16060;DHT22;8134;49.552;7.632;2023-04-03T10:48:38;8.60;99.90
16060;DHT22;8134;49.552;7.632;2023-04-03T10:58:48;7.90;97.80
16060;DHT22;8134;49.552;7.632;2023-04-03T11:01:20;7.70;97.10
16060;DHT22;8134;49.552;7.632;2023-04-03T11:03:47;7.70;98.00
16060;DHT22;8134;49.552;7.632;2023-04-03T11:06:16;7.60;97.40
16060;DHT22;8134;49.552;7.632;2023-04-03T11:08:50;7.70;98.50
16060;DHT22;8134;49.552;7.632;2023-04-03T11:11:21;7.80;98.10
16060;DHT22;8134;49.552;7.632;2023-04-03T11:16:18;8.00;98.60
16060;DHT22;8134;49.552;7.632;2023-04-03T11:18:47;8.10;99.90
16060;DHT22;8134;49.552;7.632;2023-04-03T11:21:17;8.20;97.70
16060;DHT22;8134;49.552;7.632;2023-04-03T11:23:45;8.30;99.90
16060;DHT22;8134;49.552;7.632;2023-04-03T11:26:18;8.30;98.60
16060;DHT22;8134;49.552;7.632;2023-04-03T11:28:46;8.00;95.80
16060;DHT22;8134;49.552;7.632;2023-04-03T11:38:56;8.50;99.90
16060;DHT22;8134;49.552;7.632;2023-04-03T11:41:29;8.70;97.20
16060;DHT22;8134;49.552;7.632;2023-04-03T11:44:00;8.90;97.40
16060;DHT22;8134;49.552;7.632;2023-04-03T11:49:57;9.10;96.40
16060;DHT22;8134;49.552;7.632;2023-04-03T11:51:56;9.10;96.20
16060;DHT22;8134;49.552;7.632;2023-04-03T11:54:35;8.80;94.60
16060;DHT22;8134;49.552;7.632;2023-04-03T11:57:22;8.70;95.40
16060;DHT22;8134;49.552;7.632;2023-04-03T11:59:46;8.80;95.90
16060;DHT22;8134;49.552;7.632;2023-04-03T12:05:26;8.70;95.00
16060;DHT22;8134;49.552;7.632;2023-04-03T12:10:38;8.90;95.00
16060;DHT22;8134;49.552;7.632;2023-04-03T12:13:12;8.70;94.70
16060;DHT22;8134;49.552;7.632;2023-04-03T12:15:44;8.60;95.00
16060;DHT22;8134;49.552;7.632;2023-04-03T12:18:30;8.60;95.50
16060;DHT22;8134;49.552;7.632;2023-04-03T12:20:56;8.50;94.60
16060;DHT22;8134;49.552;7.632;2023-04-03T12:23:29;8.50;94.80
16060;DHT22;8134;49.552;7.632;2023-04-03T12:25:59;8.60;94.90
16060;DHT22;8134;49.552;7.632;2023-04-03T12:28:25;8.60;95.10
16060;DHT22;8134;49.552;7.632;2023-04-03T12:30:51;8.60;95.70
16060;DHT22;8134;49.552;7.632;2023-04-03T12:33:31;8.60;94.30
16060;DHT22;8134;49.552;7.632;2023-04-03T12:46:52;8.80;95.80
16060;DHT22;8134;49.552;7.632;2023-04-03T12:49:24;9.00;96.70
16060;DHT22;8134;49.552;7.632;2023-04-03T12:51:52;9.10;95.90
16060;DHT22;8134;49.552;7.632;2023-04-03T12:56:49;9.00;94.60
16060;DHT22;8134;49.552;7.632;2023-04-03T12:59:20;9.00;94.10
16060;DHT22;8134;49.552;7.632;2023-04-03T13:02:01;9.00;94.20
16060;DHT22;8134;49.552;7.632;2023-04-03T13:04:27;9.00;94.00
16060;DHT22;8134;49.552;7.632;2023-04-03T13:06:53;8.90;94.40
16060;DHT22;8134;49.552;7.632;2023-04-03T13:11:46;8.60;94.70
16060;DHT22;8134;49.552;7.632;2023-04-03T13:14:23;8.70;94.60
16060;DHT22;8134;49.552;7.632;2023-04-03T13:16:52;8.70;94.50
16060;DHT22;8134;49.552;7.632;2023-04-03T13:19:18;8.80;95.20
16060;DHT22;8134;49.552;7.632;2023-04-03T13:21:43;8.90;94.80
16060;DHT22;8134;49.552;7.632;2023-04-03T13:24:09;8.90;94.00
16060;DHT22;8134;49.552;7.632;2023-04-03T13:26:35;9.00;94.40
16060;DHT22;8134;49.552;7.632;2023-04-03T13:29:05;8.80;94.30
16060;DHT22;8134;49.552;7.632;2023-04-03T13:31:33;8.80;94.30
16060;DHT22;8134;49.552;7.632;2023-04-03T13:34:36;8.90;94.70
16060;DHT22;8134;49.552;7.632;2023-04-03T13:41:45;8.70;93.90
16060;DHT22;8134;49.552;7.632;2023-04-03T13:45:05;8.70;94.30
16060;DHT22;8134;49.552;7.632;2023-04-03T13:47:22;8.80;94.60
16060;DHT22;8134;49.552;7.632;2023-04-03T13:50:04;9.00;95.50
16060;DHT22;8134;49.552;7.632;2023-04-03T13:52:34;8.70;96.40
16060;DHT22;8134;49.552;7.632;2023-04-03T14:00:28;8.80;96.50
16060;DHT22;8134;49.552;7.632;2023-04-03T14:02:55;8.90;96.50
16060;DHT22;8134;49.552;7.632;2023-04-03T14:05:21;9.00;96.20
16060;DHT22;8134;49.552;7.632;2023-04-03T14:07:48;9.00;95.10
16060;DHT22;8134;49.552;7.632;2023-04-03T14:10:14;9.10;94.50
16060;DHT22;8134;49.552;7.632;2023-04-03T14:12:39;9.00;93.10
16060;DHT22;8134;49.552;7.632;2023-04-03T14:15:16;9.00;93.60
16060;DHT22;8134;49.552;7.632;2023-04-03T14:17:41;8.90;94.10
16060;DHT22;8134;49.552;7.632;2023-04-03T14:20:10;8.90;94.30
16060;DHT22;8134;49.552;7.632;2023-04-03T14:22:39;9.00;94.40
16060;DHT22;8134;49.552;7.632;2023-04-03T14:25:04;9.20;94.40
16060;DHT22;8134;49.552;7.632;2023-04-03T14:27:34;9.30;94.50
16060;DHT22;8134;49.552;7.632;2023-04-03T14:30:00;9.20;93.40
16060;DHT22;8134;49.552;7.632;2023-04-03T14:32:26;9.20;94.30
16060;DHT22;8134;49.552;7.632;2023-04-03T14:34:52;9.20;94.10
16060;DHT22;8134;49.552;7.632;2023-04-03T14:37:20;9.20;94.40
16060;DHT22;8134;49.552;7.632;2023-04-03T14:39:47;9.10;94.00
16060;DHT22;8134;49.552;7.632;2023-04-03T14:42:14;9.10;93.70
16060;DHT22;8134;49.552;7.632;2023-04-03T14:44:40;9.10;93.30
16060;DHT22;8134;49.552;7.632;2023-04-03T14:47:09;9.00;93.30
16060;DHT22;8134;49.552;7.632;2023-04-03T14:49:34;9.00;93.60
16060;DHT22;8134;49.552;7.632;2023-04-03T14:52:00;8.90;92.70
16060;DHT22;8134;49.552;7.632;2023-04-03T14:54:25;9.20;93.10
16060;DHT22;8134;49.552;7.632;2023-04-03T14:56:53;9.40;93.50
16060;DHT22;8134;49.552;7.632;2023-04-03T14:59:19;9.60;92.60
16060;DHT22;8134;49.552;7.632;2023-04-03T15:01:46;9.50;92.50
16060;DHT22;8134;49.552;7.632;2023-04-03T15:04:16;9.20;91.00
16060;DHT22;8134;49.552;7.632;2023-04-03T15:06:42;9.00;91.40
16060;DHT22;8134;49.552;7.632;2023-04-03T15:09:14;9.00;92.80
16060;DHT22;8134;49.552;7.632;2023-04-03T15:11:43;9.20;91.60
16060;DHT22;8134;49.552;7.632;2023-04-03T15:14:09;9.70;94.30
16060;DHT22;8134;49.552;7.632;2023-04-03T15:16:35;10.10;92.50
16060;DHT22;8134;49.552;7.632;2023-04-03T15:19:01;10.50;92.80
16060;DHT22;8134;49.552;7.632;2023-04-03T15:21:27;10.80;91.00
16060;DHT22;8134;49.552;7.632;2023-04-03T15:23:53;10.70;87.70
16060;DHT22;8134;49.552;7.632;2023-04-03T15:26:19;10.60;87.80
16060;DHT22;8134;49.552;7.632;2023-04-03T15:28:46;10.30;89.10
16060;DHT22;8134;49.552;7.632;2023-04-03T15:31:11;10.00;89.10
16060;DHT22;8134;49.552;7.632;2023-04-03T15:33:38;9.70;90.10
16060;DHT22;8134;49.552;7.632;2023-04-03T15:36:04;9.50;89.40
16060;DHT22;8134;49.552;7.632;2023-04-03T15:38:30;9.50;88.40
16060;DHT22;8134;49.552;7.632;2023-04-03T15:40:55;9.40;90.20
16060;DHT22;8134;49.552;7.632;2023-04-03T15:43:21;9.60;88.40
16060;DHT22;8134;49.552;7.632;2023-04-03T15:45:47;9.80;88.40
16060;DHT22;8134;49.552;7.632;2023-04-03T15:48:13;10.10;89.20
16060;DHT22;8134;49.552;7.632;2023-04-03T15:50:39;10.30;89.80
16060;DHT22;8134;49.552;7.632;2023-04-03T15:53:05;10.30;85.90
16060;DHT22;8134;49.552;7.632;2023-04-03T15:55:31;10.00;83.70
16060;DHT22;8134;49.552;7.632;2023-04-03T15:57:57;9.80;83.30
16060;DHT22;8134;49.552;7.632;2023-04-03T16:00:23;9.70;85.40
16060;DHT22;8134;49.552;7.632;2023-04-03T16:02:49;9.70;86.90
16060;DHT22;8134;49.552;7.632;2023-04-03T16:05:15;9.70;87.20
16060;DHT22;8134;49.552;7.632;2023-04-03T16:07:42;9.70;87.20
16060;DHT22;8134;49.552;7.632;2023-04-03T16:10:09;9.80;87.80
16060;DHT22;8134;49.552;7.632;2023-04-03T16:12:35;9.90;87.40
16060;DHT22;8134;49.552;7.632;2023-04-03T16:15:01;9.90;86.90
16060;DHT22;8134;49.552;7.632;2023-04-03T16:17:26;10.00;87.20
16060;DHT22;8134;49.552;7.632;2023-04-03T16:19:52;10.20;87.20
16060;DHT22;8134;49.552;7.632;2023-04-03T16:22:19;10.40;90.10
16060;DHT22;8134;49.552;7.632;2023-04-03T16:24:44;10.20;85.50
16060;DHT22;8134;49.552;7.632;2023-04-03T16:27:10;10.00;84.70
16060;DHT22;8134;49.552;7.632;2023-04-03T16:29:35;10.00;85.60
16060;DHT22;8134;49.552;7.632;2023-04-03T16:32:01;10.10;86.40
16060;DHT22;8134;49.552;7.632;2023-04-03T16:34:27;10.20;86.40
16060;DHT22;8134;49.552;7.632;2023-04-03T16:36:55;10.40;86.00
16060;DHT22;8134;49.552;7.632;2023-04-03T16:39:21;10.30;84.80
16060;DHT22;8134;49.552;7.632;2023-04-03T16:41:46;10.00;85.20
16060;DHT22;8134;49.552;7.632;2023-04-03T16:44:12;9.90;85.20
16060;DHT22;8134;49.552;7.632;2023-04-03T16:46:37;10.00;86.40
16060;DHT22;8134;49.552;7.632;2023-04-03T16:49:03;10.00;85.30
16060;DHT22;8134;49.552;7.632;2023-04-03T16:51:28;10.10;87.70
16060;DHT22;8134;49.552;7.632;2023-04-03T16:53:54;9.80;85.50
16060;DHT22;8134;49.552;7.632;2023-04-03T16:56:20;9.50;86.50
16060;DHT22;8134;49.552;7.632;2023-04-03T16:58:45;9.40;85.90
16060;DHT22;8134;49.552;7.632;2023-04-03T17:01:14;9.30;86.80
16060;DHT22;8134;49.552;7.632;2023-04-03T17:03:40;9.00;86.10
16060;DHT22;8134;49.552;7.632;2023-04-03T17:06:06;9.00;87.50
16060;DHT22;8134;49.552;7.632;2023-04-03T17:08:31;9.20;90.00
16060;DHT22;8134;49.552;7.632;2023-04-03T17:10:57;9.10;87.30
16060;DHT22;8134;49.552;7.632;2023-04-03T17:13:22;9.00;88.10
16060;DHT22;8134;49.552;7.632;2023-04-03T17:15:48;9.00;88.40
16060;DHT22;8134;49.552;7.632;2023-04-03T17:18:14;8.80;87.70
16060;DHT22;8134;49.552;7.632;2023-04-03T17:20:39;8.80;89.10
16060;DHT22;8134;49.552;7.632;2023-04-03T17:23:05;8.70;87.60
16060;DHT22;8134;49.552;7.632;2023-04-03T17:25:31;8.70;88.90
16060;DHT22;8134;49.552;7.632;2023-04-03T17:27:56;8.80;89.70
16060;DHT22;8134;49.552;7.632;2023-04-03T17:30:22;8.80;90.30
16060;DHT22;8134;49.552;7.632;2023-04-03T17:32:47;8.80;89.20
16060;DHT22;8134;49.552;7.632;2023-04-03T17:35:13;8.60;87.90
16060;DHT22;8134;49.552;7.632;2023-04-03T17:37:39;8.60;89.80
16060;DHT22;8134;49.552;7.632;2023-04-03T17:40:04;8.50;88.30
16060;DHT22;8134;49.552;7.632;2023-04-03T17:42:30;8.40;89.30
16060;DHT22;8134;49.552;7.632;2023-04-03T17:44:57;8.40;89.40
16060;DHT22;8134;49.552;7.632;2023-04-03T17:47:22;8.40;90.50
16060;DHT22;8134;49.552;7.632;2023-04-03T17:49:48;8.40;91.00
16060;DHT22;8134;49.552;7.632;2023-04-03T17:52:13;8.40;90.30
16060;DHT22;8134;49.552;7.632;2023-04-03T17:54:39;8.40;90.30
16060;DHT22;8134;49.552;7.632;2023-04-03T17:57:05;8.30;91.10
16060;DHT22;8134;49.552;7.632;2023-04-03T17:59:31;8.30;91.70
16060;DHT22;8134;49.552;7.632;2023-04-03T18:01:56;8.30;92.30
16060;DHT22;8134;49.552;7.632;2023-04-03T18:04:22;8.10;91.50
16060;DHT22;8134;49.552;7.632;2023-04-03T18:06:48;8.00;92.20
16060;DHT22;8134;49.552;7.632;2023-04-03T18:11:41;7.80;93.50
16060;DHT22;8134;49.552;7.632;2023-04-03T18:14:06;7.70;94.00
16060;DHT22;8134;49.552;7.632;2023-04-03T18:16:32;7.60;94.60
16060;DHT22;8134;49.552;7.632;2023-04-03T18:18:58;7.50;94.90
16060;DHT22;8134;49.552;7.632;2023-04-03T18:21:24;7.30;95.00
16060;DHT22;8134;49.552;7.632;2023-04-03T18:23:50;7.20;95.40
16060;DHT22;8134;49.552;7.632;2023-04-03T18:26:17;7.10;96.00
16060;DHT22;8134;49.552;7.632;2023-04-03T18:28:45;6.90;96.60
16060;DHT22;8134;49.552;7.632;2023-04-03T18:31:13;6.80;97.10
16060;DHT22;8134;49.552;7.632;2023-04-03T18:33:40;6.70;97.30
16060;DHT22;8134;49.552;7.632;2023-04-03T18:36:06;6.60;98.00
16060;DHT22;8134;49.552;7.632;2023-04-03T18:38:31;6.50;98.10
16060;DHT22;8134;49.552;7.632;2023-04-03T18:40:57;6.40;98.00
16060;DHT22;8134;49.552;7.632;2023-04-03T18:43:23;6.40;98.30
16060;DHT22;8134;49.552;7.632;2023-04-03T18:45:51;6.30;98.10
16060;DHT22;8134;49.552;7.632;2023-04-03T18:48:16;6.20;98.60
16060;DHT22;8134;49.552;7.632;2023-04-03T18:50:43;6.10;98.90
16060;DHT22;8134;49.552;7.632;2023-04-03T18:53:09;6.00;98.90
16060;DHT22;8134;49.552;7.632;2023-04-03T18:55:35;6.00;99.50
16060;DHT22;8134;49.552;7.632;2023-04-03T18:58:00;5.90;98.90
16060;DHT22;8134;49.552;7.632;2023-04-03T19:00:26;5.90;99.40
16060;DHT22;8134;49.552;7.632;2023-04-03T19:02:51;5.80;99.50
16060;DHT22;8134;49.552;7.632;2023-04-03T19:05:17;5.80;99.90
16060;DHT22;8134;49.552;7.632;2023-04-03T19:07:44;5.70;99.90
16060;DHT22;8134;49.552;7.632;2023-04-03T19:10:11;5.70;99.90
16060;DHT22;8134;49.552;7.632;2023-04-03T19:12:47;5.60;99.90
16060;DHT22;8134;49.552;7.632;2023-04-03T19:15:14;5.60;99.90
16060;DHT22;8134;49.552;7.632;2023-04-03T19:17:41;5.60;99.80
16060;DHT22;8134;49.552;7.632;2023-04-03T19:20:07;5.70;99.90
16060;DHT22;8134;49.552;7.632;2023-04-03T19:22:33;5.60;99.90
16060;DHT22;8134;49.552;7.632;2023-04-03T19:24:58;5.60;99.90
16060;DHT22;8134;49.552;7.632;2023-04-03T19:27:24;5.50;99.90
16060;DHT22;8134;49.552;7.632;2023-04-03T19:29:49;5.60;99.90
16060;DHT22;8134;49.552;7.632;2023-04-03T19:32:15;5.60;99.90
16060;DHT22;8134;49.552;7.632;2023-04-03T19:34:41;5.60;99.90
16060;DHT22;8134;49.552;7.632;2023-04-03T19:37:06;5.80;99.90
16060;DHT22;8134;49.552;7.632;2023-04-03T19:39:32;5.60;99.90
16060;DHT22;8134;49.552;7.632;2023-04-03T19:42:00;5.50;99.90
16060;DHT22;8134;49.552;7.632;2023-04-03T19:44:26;5.40;99.90
16060;DHT22;8134;49.552;7.632;2023-04-03T19:46:52;5.40;99.90
16060;DHT22;8134;49.552;7.632;2023-04-03T19:49:18;5.40;99.90
16060;DHT22;8134;49.552;7.632;2023-04-03T19:51:43;5.30;99.90
16060;DHT22;8134;49.552;7.632;2023-04-03T19:54:09;5.30;99.30
16060;DHT22;8134;49.552;7.632;2023-04-03T19:56:35;5.30;99.90
16060;DHT22;8134;49.552;7.632;2023-04-03T19:59:00;5.30;99.90
16060;DHT22;8134;49.552;7.632;2023-04-03T20:01:26;5.50;99.90
16060;DHT22;8134;49.552;7.632;2023-04-03T20:03:54;5.30;99.90
16060;DHT22;8134;49.552;7.632;2023-04-03T20:06:19;5.20;99.90
16060;DHT22;8134;49.552;7.632;2023-04-03T20:08:45;5.10;99.90
16060;DHT22;8134;49.552;7.632;2023-04-03T20:11:11;5.10;99.90
16060;DHT22;8134;49.552;7.632;2023-04-03T20:13:37;5.10;99.90
16060;DHT22;8134;49.552;7.632;2023-04-03T20:16:03;5.00;99.90
16060;DHT22;8134;49.552;7.632;2023-04-03T20:18:29;4.90;99.90
16060;DHT22;8134;49.552;7.632;2023-04-03T20:20:56;4.90;99.90
16060;DHT22;8134;49.552;7.632;2023-04-03T20:23:22;4.90;99.90
16060;DHT22;8134;49.552;7.632;2023-04-03T20:25:48;4.80;99.90
16060;DHT22;8134;49.552;7.632;2023-04-03T20:28:14;4.70;99.90
16060;DHT22;8134;49.552;7.632;2023-04-03T20:30:40;4.70;99.90
16060;DHT22;8134;49.552;7.632;2023-04-03T20:33:06;4.70;99.90
16060;DHT22;8134;49.552;7.632;2023-04-03T20:35:32;4.60;99.90
16060;DHT22;8134;49.552;7.632;2023-04-03T20:37:58;4.60;99.90
16060;DHT22;8134;49.552;7.632;2023-04-03T20:40:23;4.60;99.90
16060;DHT22;8134;49.552;7.632;2023-04-03T20:42:49;4.50;99.90
16060;DHT22;8134;49.552;7.632;2023-04-03T20:45:19;4.50;99.90
16060;DHT22;8134;49.552;7.632;2023-04-03T20:47:46;4.50;99.90
16060;DHT22;8134;49.552;7.632;2023-04-03T20:50:12;4.50;99.90
16060;DHT22;8134;49.552;7.632;2023-04-03T20:52:37;4.60;99.90
16060;DHT22;8134;49.552;7.632;2023-04-03T20:55:03;4.40;99.90
16060;DHT22;8134;49.552;7.632;2023-04-03T20:57:29;4.40;99.90
16060;DHT22;8134;49.552;7.632;2023-04-03T20:59:54;4.30;99.90
16060;DHT22;8134;49.552;7.632;2023-04-03T21:02:20;4.30;99.90
